Time;durP1;ratioP1;P1;durP2;ratioP2;P2;SDS_P1;SDS_P2;PMS_P1;PMS_P2;Temp;Humidity;BMP_temperature;BMP_pressure;BME280_temperature;BME280_humidity;BME280_pressure;Samples;Min_cycle;Max_cycle;Signal;HPM_P1;HPM_P2
2022/05/03 00:01:46;;;;;;;11.80;3.78;;;;;;;;;;5072674;28;20061;-69
2022/05/03 00:04:21;;;;;;;8.80;3.55;;;;;;;;;;5040767;28;20368;-70
2022/05/03 00:07:05;;;;;;;10.43;4.03;;;;;;;;;;5058543;28;20376;-70
2022/05/03 00:09:45;;;;;;;5.32;3.83;;;;;;;;;;5060198;28;20044;-73
2022/05/03 00:12:12;;;;;;;8.93;4.25;;;;;;;;;;5057379;28;20502;-70
2022/05/03 00:14:46;;;;;;;6.88;4.78;;;;;;;;;;5052776;28;20044;-71
2022/05/03 00:17:14;;;;;;;8.70;4.78;;;;;;;;;;5035133;28;20048;-70
2022/05/03 00:19:39;;;;;;;10.30;4.72;;;;;;;;;;5052176;28;20033;-72
2022/05/03 00:22:05;;;;;;;8.57;4.57;;;;;;;;;;5040981;28;20044;-70
2022/05/03 00:24:30;;;;;;;6.97;4.20;;;;;;;;;;5045592;28;20034;-70
2022/05/03 00:26:56;;;;;;;9.77;4.40;;;;;;;;;;5047028;28;20309;-70
2022/05/03 00:29:22;;;;;;;5.97;4.30;;;;;;;;;;5049719;28;20479;-70
2022/05/03 00:31:48;;;;;;;8.77;4.32;;;;;;;;;;5036970;28;20040;-71
2022/05/03 00:34:13;;;;;;;7.00;4.32;;;;;;;;;;5050151;28;20033;-69
2022/05/03 00:36:38;;;;;;;6.95;4.25;;;;;;;;;;5049560;28;20082;-69
2022/05/03 00:39:04;;;;;;;10.93;4.30;;;;;;;;;;5048910;28;20124;-71
2022/05/03 00:41:29;;;;;;;7.75;4.20;;;;;;;;;;5051540;28;20562;-72
2022/05/03 00:44:01;;;;;;;13.17;4.80;;;;;;;;;;5034791;28;20059;-70
2022/05/03 00:46:28;;;;;;;9.07;4.70;;;;;;;;;;5052163;28;20057;-69
2022/05/03 00:48:53;;;;;;;6.50;4.30;;;;;;;;;;5052622;28;20132;-70
2022/05/03 00:51:25;;;;;;;10.03;4.70;;;;;;;;;;5050937;28;20139;-70
2022/05/03 00:53:56;;;;;;;7.50;4.93;;;;;;;;;;5031805;28;20282;-71
2022/05/03 00:56:40;;;;;;;7.72;4.72;;;;;;;;;;5034164;28;20643;-70
2022/05/03 00:59:08;;;;;;;10.13;5.05;;;;;;;;;;5052415;28;20453;-70
2022/05/03 01:01:34;;;;;;;11.95;5.32;;;;;;;;;;5050638;28;20040;-69
2022/05/03 01:04:17;;;;;;;10.20;5.90;;;;;;;;;;5053447;28;20095;-69
2022/05/03 01:06:58;;;;;;;8.40;4.90;;;;;;;;;;5048716;28;20060;-70
2022/05/03 01:09:31;;;;;;;15.20;5.25;;;;;;;;;;5053010;28;20033;-71
2022/05/03 01:12:02;;;;;;;9.75;5.55;;;;;;;;;;5051209;28;20041;-69
2022/05/03 01:14:40;;;;;;;7.72;5.20;;;;;;;;;;5053016;28;20044;-70
2022/05/03 01:17:10;;;;;;;14.20;5.20;;;;;;;;;;5046180;28;20049;-69
2022/05/03 01:19:44;;;;;;;7.97;4.88;;;;;;;;;;5063492;28;20294;-70
2022/05/03 01:22:45;;;;;;;11.15;5.88;;;;;;;;;;5051312;28;20072;-70
2022/05/03 01:25:18;;;;;;;15.15;6.10;;;;;;;;;;4953874;28;20104;-70
2022/05/03 01:28:02;;;;;;;13.80;5.75;;;;;;;;;;4970674;28;20035;-70
2022/05/03 01:30:31;;;;;;;13.00;5.65;;;;;;;;;;4969208;28;20093;-70
2022/05/03 01:33:01;;;;;;;8.15;5.25;;;;;;;;;;4955132;28;20049;-71
2022/05/03 01:35:31;;;;;;;10.40;5.43;;;;;;;;;;4966037;28;20043;-73
2022/05/03 01:38:12;;;;;;;9.15;5.65;;;;;;;;;;4958184;28;20047;-71
2022/05/03 01:40:52;;;;;;;10.13;5.40;;;;;;;;;;4965278;28;20049;-70
2022/05/03 01:43:17;;;;;;;;;;;;;;;;;;4941518;29;20074;-71
2022/05/03 01:45:48;;;;;;;9.48;5.57;;;;;;;;;;4965796;28;19949;-71
2022/05/03 01:48:14;;;;;;;8.40;5.32;;;;;;;;;;4954928;28;20035;-70
2022/05/03 01:50:45;;;;;;;10.45;5.75;;;;;;;;;;4963248;28;20047;-70
2022/05/03 01:53:10;;;;;;;10.27;5.53;;;;;;;;;;4962853;28;20119;-70
2022/05/03 01:55:41;;;;;;;10.30;5.43;;;;;;;;;;4969369;28;20141;-71
2022/05/03 01:58:06;;;;;;;10.20;5.82;;;;;;;;;;4972671;28;20245;-70
2022/05/03 02:00:38;;;;;;;10.02;6.18;;;;;;;;;;5050189;28;20040;-73
2022/05/03 02:03:16;;;;;;;8.50;5.68;;;;;;;;;;5050294;28;20132;-70
2022/05/03 02:05:50;;;;;;;10.65;6.00;;;;;;;;;;5050915;28;20120;-70
2022/05/03 02:08:22;;;;;;;8.93;5.50;;;;;;;;;;5049462;28;20090;-72
2022/05/03 02:10:47;;;;;;;8.57;5.82;;;;;;;;;;5050151;28;20032;-70
2022/05/03 02:13:22;;;;;;;13.90;6.20;;;;;;;;;;5051432;28;20045;-71
2022/05/03 02:15:49;;;;;;;10.23;6.25;;;;;;;;;;5049082;28;20503;-72
2022/05/03 02:18:33;;;;;;;10.45;6.78;;;;;;;;;;5032021;28;20041;-69
2022/05/03 02:21:01;;;;;;;12.88;7.13;;;;;;;;;;5018222;28;20053;-70
2022/05/03 02:23:29;;;;;;;10.32;6.40;;;;;;;;;;5051702;28;20036;-70
2022/05/03 02:25:54;;;;;;;14.73;6.40;;;;;;;;;;5049714;28;20041;-70
2022/05/03 02:28:24;;;;;;;15.37;7.20;;;;;;;;;;5049212;28;20040;-72
2022/05/03 02:30:50;;;;;;;11.80;6.53;;;;;;;;;;5050825;28;20044;-70
2022/05/03 02:33:34;;;;;;;14.10;6.30;;;;;;;;;;5038984;28;20486;-71
2022/05/03 02:35:59;;;;;;;10.52;6.07;;;;;;;;;;5048661;28;20037;-72
2022/05/03 02:38:29;;;;;;;9.68;6.85;;;;;;;;;;5051313;28;20032;-72
2022/05/03 02:40:55;;;;;;;11.23;5.97;;;;;;;;;;5065712;28;20059;-70
2022/05/03 02:43:25;;;;;;;11.38;6.57;;;;;;;;;;5067986;28;20037;-70
2022/05/03 02:45:55;;;;;;;13.75;7.60;;;;;;;;;;5048000;28;20103;-70
2022/05/03 02:48:30;;;;;;;9.88;6.38;;;;;;;;;;5052174;28;20039;-69
2022/05/03 02:51:07;;;;;;;21.23;17.00;;;;;;;;;;5062964;28;20115;-71
2022/05/03 02:53:32;;;;;;;11.27;8.02;;;;;;;;;;5074165;28;20101;-71
2022/05/03 02:56:16;;;;;;;12.35;7.20;;;;;;;;;;5072360;28;20053;-71
2022/05/03 02:58:53;;;;;;;9.90;6.57;;;;;;;;;;5071210;28;20052;-72
2022/05/03 03:01:48;;;;;;;12.38;6.70;;;;;;;;;;5065323;28;20044;-72
2022/05/03 03:04:20;;;;;;;14.52;6.93;;;;;;;;;;5030765;28;20033;-72
2022/05/03 03:06:45;;;;;;;25.95;7.85;;;;;;;;;;5055228;28;20033;-72
2022/05/03 03:09:17;;;;;;;13.20;6.75;;;;;;;;;;5057819;28;20467;-71
2022/05/03 03:11:48;;;;;;;18.02;6.72;;;;;;;;;;5054414;28;20030;-70
2022/05/03 03:14:19;;;;;;;13.27;6.85;;;;;;;;;;5042867;28;20048;-70
2022/05/03 03:17:04;;;;;;;14.50;6.75;;;;;;;;;;5049482;28;20127;-70
2022/05/03 03:19:39;;;;;;;12.50;6.10;;;;;;;;;;5051127;28;20033;-70
2022/05/03 03:22:12;;;;;;;11.18;6.82;;;;;;;;;;5049802;28;20052;-71
2022/05/03 03:24:38;;;;;;;18.95;6.80;;;;;;;;;;5050839;28;20037;-71
2022/05/03 03:27:05;;;;;;;14.88;6.47;;;;;;;;;;5045135;28;20042;-71
2022/05/03 03:29:31;;;;;;;15.23;7.68;;;;;;;;;;5040328;28;20194;-71
2022/05/03 03:31:58;;;;;;;14.40;7.15;;;;;;;;;;5048392;28;20033;-70
2022/05/03 03:34:24;;;;;;;14.00;6.97;;;;;;;;;;5027071;28;20036;-71
2022/05/03 03:36:52;;;;;;;13.70;6.97;;;;;;;;;;5053618;28;20044;-73
2022/05/03 03:39:17;;;;;;;12.98;6.80;;;;;;;;;;5061128;28;20029;-70
2022/05/03 03:41:43;;;;;;;19.13;7.70;;;;;;;;;;5061593;28;20037;-71
2022/05/03 03:44:09;;;;;;;16.83;7.10;;;;;;;;;;5048052;28;20278;-71
2022/05/03 03:46:34;;;;;;;18.42;6.88;;;;;;;;;;5017430;28;20072;-72
2022/05/03 03:49:03;;;;;;;12.68;6.95;;;;;;;;;;5046726;28;20116;-70
2022/05/03 03:51:28;;;;;;;12.40;6.95;;;;;;;;;;5036260;28;20434;-73
2022/05/03 03:53:54;;;;;;;16.67;7.38;;;;;;;;;;5048784;28;20090;-72
2022/05/03 03:56:19;;;;;;;12.98;6.95;;;;;;;;;;5049307;28;20537;-70
2022/05/03 03:58:45;;;;;;;12.50;6.82;;;;;;;;;;5041074;28;20465;-71
2022/05/03 04:01:11;;;;;;;13.88;7.00;;;;;;;11.01;nan;100409.41;5043322;28;20033;-72
2022/05/03 04:03:37;;;;;;;16.92;7.22;;;;;;;;;;5029993;28;20038;-72
2022/05/03 04:06:03;;;;;;;17.13;7.07;;;;;;;;;;5044513;28;20573;-71
2022/05/03 04:08:28;;;;;;;12.18;6.90;;;;;;;;;;5044663;28;20052;-72
2022/05/03 04:10:54;;;;;;;14.53;8.00;;;;;;;;;;5032578;28;20037;-74
2022/05/03 04:13:19;;;;;;;17.03;7.00;;;;;;;;;;5046788;28;20630;-71
2022/05/03 04:15:44;;;;;;;15.90;7.80;;;;;;;;;;5033483;28;20346;-71
2022/05/03 04:18:10;;;;;;;12.85;7.65;;;;;;;;;;5035336;28;20098;-72
2022/05/03 04:20:36;;;;;;;11.52;7.70;;;;;;;;;;5028099;28;20041;-71
2022/05/03 04:23:01;;;;;;;15.15;7.50;;;;;;;;;;5033023;28;20452;-72
2022/05/03 04:25:26;;;;;;;12.35;7.80;;;;;;;;;;5019259;28;20431;-72
2022/05/03 04:27:52;;;;;;;19.30;8.02;;;;;;;;;;5048814;28;20411;-73
2022/05/03 04:30:17;;;;;;;21.20;7.93;;;;;;;;;;5031638;28;20030;-71
2022/05/03 04:32:43;;;;;;;11.63;7.57;;;;;;;;;;5037771;28;20289;-71
2022/05/03 04:35:09;;;;;;;21.75;8.40;;;;;;;;;;5044063;28;20470;-70
2022/05/03 04:37:34;;;;;;;15.75;7.63;;;;;;;;;;5041833;28;20093;-73
2022/05/03 04:39:59;;;;;;;16.30;8.98;;;;;;;;;;5030562;28;20125;-70
2022/05/03 04:42:24;;;;;;;22.40;7.40;;;;;;;;;;5026758;28;20064;-73
2022/05/03 04:44:50;;;;;;;21.57;8.30;;;;;;;;;;5027661;28;20629;-73
2022/05/03 04:47:15;;;;;;;25.13;9.17;;;;;;;;;;5027437;28;20353;-71
2022/05/03 04:49:40;;;;;;;21.90;8.80;;;;;;;;;;5032677;28;20271;-72
2022/05/03 04:52:06;;;;;;;17.75;7.90;;;;;;;;;;5050360;28;20123;-70
2022/05/03 04:54:31;;;;;;;22.50;7.85;;;;;;;;;;5023879;28;20037;-69
2022/05/03 04:56:58;;;;;;;18.15;8.73;;;;;;;;;;5030774;28;20041;-70
2022/05/03 04:59:23;;;;;;;15.10;8.60;;;;;;;;;;5049300;28;20057;-71
2022/05/03 05:01:48;;;;;;;20.23;8.05;;;;;;;;;;5053278;28;20083;-69
2022/05/03 05:04:13;;;;;;;14.00;7.30;;;;;;;;;;5051111;28;20044;-70
2022/05/03 05:06:39;;;;;;;20.25;8.10;;;;;;;;;;5046545;28;20052;-73
2022/05/03 05:09:04;;;;;;;21.17;7.87;;;;;;;;;;5035197;28;20075;-71
2022/05/03 05:11:29;;;;;;;14.73;7.13;;;;;;;;;;5045494;28;20332;-71
2022/05/03 05:13:55;;;;;;;18.42;7.30;;;;;;;;;;5050108;28;20098;-68
2022/05/03 05:16:20;;;;;;;13.85;7.13;;;;;;;;;;5050597;28;20045;-70
2022/05/03 05:18:45;;;;;;;13.93;6.80;;;;;;;;;;5062989;28;20029;-70
2022/05/03 05:21:12;;;;;;;22.13;8.17;;;;;;;;;;5030214;28;20358;-70
2022/05/03 05:23:37;;;;;;;15.52;7.40;;;;;;;;;;5035470;28;20277;-70
2022/05/03 05:26:02;;;;;;;17.50;7.35;;;;;;;11.85;nan;100441.63;5047872;28;20406;-69
2022/05/03 05:28:28;;;;;;;27.95;7.40;;;;;;;;;;5025534;28;20091;-69
2022/05/03 05:30:53;;;;;;;16.65;7.68;;;;;;;;;;5028907;28;20120;-71
2022/05/03 05:33:20;;;;;;;14.40;6.20;;;;;;;;;;5047646;28;20403;-71
2022/05/03 05:35:46;;;;;;;14.55;6.32;;;;;;;;;;5049059;28;20025;-69
2022/05/03 05:38:14;;;;;;;13.93;6.40;;;;;;;;;;5055575;28;20033;-69
2022/05/03 05:40:39;;;;;;;19.10;7.35;;;;;;;;;;5069613;28;20032;-70
2022/05/03 05:43:05;;;;;;;12.18;6.30;;;;;;;;;;5057731;28;20017;-70
2022/05/03 05:45:30;;;;;;;13.20;7.00;;;;;;;;;;5070310;28;20028;-70
2022/05/03 05:47:59;;;;;;;11.63;6.43;;;;;;;;;;5062194;28;20045;-71
2022/05/03 05:50:24;;;;;;;16.77;6.33;;;;;;;;;;5067269;28;20661;-72
2022/05/03 05:55:36;;;;;;;15.65;6.47;;;;;;;;;;5069639;28;20041;-71
2022/05/03 05:58:02;;;;;;;26.30;7.05;;;;;;;;;;5055257;28;20107;-71
2022/05/03 06:00:27;;;;;;;16.70;6.47;;;;;;;;;;5062240;28;20041;-72
2022/05/03 06:02:52;;;;;;;17.23;6.20;;;;;;;;;;5047620;28;20105;-71
2022/05/03 06:05:17;;;;;;;16.87;5.70;;;;;;;;;;5059723;28;20274;-73
2022/05/03 06:07:43;;;;;;;15.07;5.80;;;;;;;;;;5046902;28;20284;-72
2022/05/03 06:10:08;;;;;;;14.10;5.80;;;;;;;12.93;nan;100473.53;5053076;28;20351;-72
2022/05/03 06:12:34;;;;;;;11.70;5.28;;;;;;;;;;5059988;28;20281;-72
2022/05/03 06:14:59;;;;;;;8.82;4.95;;;;;;;;;;5046803;28;20029;-74
2022/05/03 06:17:24;;;;;;;22.93;5.60;;;;;;;;;;5046883;28;20395;-74
2022/05/03 06:19:49;;;;;;;13.98;5.80;;;;;;;;;;5060654;28;20029;-74
2022/05/03 06:22:15;;;;;;;10.97;5.10;;;;;;;;;;5049831;28;20051;-72
2022/05/03 06:24:40;;;;;;;18.70;5.53;;;;;;;;;;5033804;28;20044;-72
2022/05/03 06:27:06;;;;;;;23.25;6.13;;;;;;;;;;5059020;28;20036;-73
2022/05/03 06:29:32;;;;;;;21.50;5.70;;;;;;;;;;5037490;28;21510;-70
2022/05/03 06:31:59;;;;;;;20.15;5.72;;;;;;;;;;5033854;28;20079;-71
2022/05/03 06:34:25;;;;;;;16.38;5.30;;;;;;;;;;5050267;28;20028;-70
2022/05/03 06:36:50;;;;;;;11.23;5.03;;;;;;;;;;5048499;28;20419;-70
2022/05/03 06:39:15;;;;;;;12.73;4.97;;;;;;;;;;5025208;28;20410;-71
2022/05/03 06:41:41;;;;;;;23.30;5.35;;;;;;;14.42;nan;100460.53;5050064;28;20032;-71
2022/05/03 06:44:06;;;;;;;10.07;4.80;;;;;;;;;;5033895;28;20037;-75
2022/05/03 06:46:31;;;;;;;7.80;4.57;;;;;;;;;;5050705;28;20041;-72
2022/05/03 06:48:57;;;;;;;15.00;5.25;;;;;;;;;;5048951;28;20124;-73
2022/05/03 06:51:22;;;;;;;14.60;4.85;;;;;;;;;;5051241;28;20514;-73
2022/05/03 06:53:47;;;;;;;10.88;4.88;;;;;;;;;;5048035;28;20102;-71
2022/05/03 06:56:13;;;;;;;21.05;4.50;;;;;;;;;;5043328;28;20094;-71
2022/05/03 06:58:39;;;;;;;20.83;5.30;;;;;;;;;;5044078;28;20049;-72
2022/05/03 07:01:11;;;;;;;11.23;4.65;;;;;;;;;;5040424;28;20107;-72
2022/05/03 07:03:37;;;;;;;16.25;4.68;;;;;;;;;;5022453;28;20394;-76
2022/05/03 07:06:03;;;;;;;18.67;5.05;;;;;;;;;;5047124;28;20044;-76
2022/05/03 07:08:28;;;;;;;12.50;4.20;;;;;;;;;;5049683;28;20051;-71
2022/05/03 07:10:54;;;;;;;14.75;4.47;;;;;;;15.32;nan;100467.97;5060228;28;20119;-72
2022/05/03 07:13:23;;;;;;;7.78;4.10;;;;;;;;;;5047693;28;20037;-73
2022/05/03 07:15:49;;;;;;;;;;;;;;;;;;5035032;28;20033;-72
2022/05/03 07:23:41;;;;;;;18.35;4.13;;;;;;;;;;5051088;28;20498;-71
2022/05/03 07:26:07;;;;;;;6.77;3.47;;;;;;;;;;5016867;28;20073;-70
2022/05/03 07:28:32;;;;;;;7.33;3.30;;;;;;;;;;5025852;28;20286;-72
2022/05/03 07:30:57;;;;;;;6.97;3.40;;;;;;;;;;5039058;28;21260;-72
2022/05/03 07:33:23;;;;;;;6.72;2.97;;;;;;;;;;5038364;28;20412;-72
2022/05/03 07:35:48;;;;;;;8.07;2.90;;;;;;;;;;5012394;28;20045;-72
2022/05/03 07:38:13;;;;;;;7.25;3.10;;;;;;;;;;5039685;28;20274;-69
2022/05/03 07:40:38;;;;;;;6.53;2.93;;;;;;;;;;5038665;28;20049;-70
2022/05/03 07:43:05;;;;;;;6.07;3.15;;;;;;;16.08;nan;100488.91;5022908;28;20373;-70
2022/05/03 07:45:30;;;;;;;12.60;3.15;;;;;;;;;;5041179;28;20124;-68
2022/05/03 07:47:56;;;;;;;9.25;3.42;;;;;;;;;;5042322;28;20636;-70
2022/05/03 07:50:21;;;;;;;7.97;3.27;;;;;;;;;;5040281;28;20057;-69
2022/05/03 07:52:46;;;;;;;14.70;3.38;;;;;;;16.26;nan;100585.97;5041971;28;20343;-71
2022/05/03 07:55:12;;;;;;;6.85;3.22;;;;;;;;;;5021441;28;20083;-69
2022/05/03 07:57:37;;;;;;;6.00;2.93;;;;;;;;;;5016017;28;20118;-70
2022/05/03 08:00:04;;;;;;;5.05;3.03;;;;;;;;;;5040448;28;20297;-70
2022/05/03 08:02:30;;;;;;;6.28;3.10;;;;;;;16.40;nan;100501.25;5054933;28;20049;-73
2022/05/03 08:04:55;;;;;;;9.57;3.50;;;;;;;;;;5050627;28;20518;-71
2022/05/03 08:07:21;;;;;;;7.17;2.57;;;;;;;;;;5050554;28;20044;-72
2022/05/03 08:09:48;;;;;;;5.40;2.50;;;;;;;;;;5051216;28;20274;-72
2022/05/03 08:12:14;;;;;;;6.55;3.00;;;;;;;;;;5037540;28;20120;-72
2022/05/03 08:14:39;;;;;;;5.45;2.83;;;;;;;;;;5049622;28;20108;-72
2022/05/03 08:17:05;;;;;;;4.75;3.20;;;;;;;;;;5037902;28;20039;-73
2022/05/03 08:19:30;;;;;;;5.93;2.80;;;;;;;;;;5040871;28;20040;-71
2022/05/03 08:21:56;;;;;;;4.25;2.60;;;;;;;;;;5039056;28;20037;-73
2022/05/03 08:24:25;;;;;;;7.43;2.55;;;;;;;16.61;nan;100515.38;5040735;28;20056;-72
2022/05/03 08:26:51;;;;;;;7.68;2.92;;;;;;;;;;5030586;28;20124;-72
2022/05/03 08:29:16;;;;;;;5.47;2.78;;;;;;;;;;5035816;28;20123;-71
2022/05/03 08:31:41;;;;;;;9.02;2.97;;;;;;;;;;5043483;28;20407;-72
2022/05/03 08:34:07;;;;;;;9.60;2.90;;;;;;;;;;5039248;28;20045;-73
2022/05/03 08:36:33;;;;;;;12.57;3.08;;;;;;;;;;5042456;28;20032;-71
2022/05/03 08:42:06;;;;;;;5.50;2.67;;;;;;;;;;5042957;28;20060;-71
2022/05/03 08:44:31;;;;;;;9.48;2.75;;;;;;;;;;5041115;28;20071;-68
2022/05/03 08:46:57;;;;;;;8.60;2.60;;;;;;;;;;5024793;28;20067;-69
2022/05/03 08:49:23;;;;;;;6.47;2.85;;;;;;;;;;5041766;28;20467;-72
2022/05/03 08:51:49;;;;;;;8.00;2.92;;;;;;;;;;5042254;28;20041;-71
2022/05/03 08:54:15;;;;;;;4.65;2.50;;;;;;;;;;5043181;28;20037;-76
2022/05/03 08:56:40;;;;;;;8.90;2.67;;;;;;;;;;5031261;28;20064;-72
2022/05/03 08:59:06;;;;;;;6.68;2.58;;;;;;;;;;5058832;28;20068;-73
2022/05/03 09:01:31;;;;;;;5.82;2.20;;;;;;;17.53;nan;100522.69;5055050;28;20041;-73
2022/05/03 09:03:57;;;;;;;4.97;2.38;;;;;;;;;;5060073;28;20044;-75
2022/05/03 09:06:40;;;;;;;7.78;2.10;;;;;;;;;;5062395;28;20036;-73
2022/05/03 09:09:12;;;;;;;5.25;2.05;;;;;;;;;;5061284;28;20383;-73
2022/05/03 09:11:44;;;;;;;7.10;2.22;;;;;;;;;;5063749;28;20041;-72
2022/05/03 09:14:10;;;;;;;4.70;2.17;;;;;;;;;;5065585;28;20045;-71
2022/05/03 09:16:46;;;;;;;6.10;2.60;;;;;;;;;;5062375;28;20041;-70
2022/05/03 09:19:21;;;;;;;5.32;2.30;;;;;;;;;;5058113;28;20044;-69
2022/05/03 09:24:49;;;;;;;7.70;2.65;;;;;;;;;;5052391;28;20037;-72
2022/05/03 09:27:18;;;;;;;6.25;2.63;;;;;;;;;;5060898;28;20033;-70
2022/05/03 09:30:02;;;;;;;5.40;2.22;;;;;;;;;;5060514;28;20037;-72
2022/05/03 09:32:38;;;;;;;8.55;2.55;;;;;;;;;;5059692;28;20068;-72
2022/05/03 09:35:04;;;;;;;7.28;2.17;;;;;;;;;;5059269;28;20537;-72
2022/05/03 09:37:39;;;;;;;4.38;2.15;;;;;;;;;;5048482;28;20040;-72
2022/05/03 09:40:05;;;;;;;4.05;2.22;;;;;;;;;;5047072;28;20029;-72
2022/05/03 09:42:30;;;;;;;6.43;2.33;;;;;;;;;;5044019;28;20044;-73
2022/05/03 09:45:00;;;;;;;4.30;2.20;;;;;;;;;;5044869;28;20029;-72
2022/05/03 09:47:25;;;;;;;3.45;2.10;;;;;;;;;;5045537;28;20282;-72
2022/05/03 09:49:51;;;;;;;7.23;2.30;;;;;;;;;;5043595;28;20037;-72
2022/05/03 09:52:28;;;;;;;9.73;2.58;;;;;;;;;;5042261;28;20051;-75
2022/05/03 09:55:03;;;;;;;4.20;2.20;;;;;;;18.62;nan;100447.41;5040721;28;20041;-75
2022/05/03 09:57:33;;;;;;;7.10;2.33;;;;;;;18.69;nan;100439.91;5042029;28;20041;-74
2022/05/03 09:59:59;;;;;;;7.35;2.60;;;;;;;;;;5042110;28;20123;-74
2022/05/03 10:02:28;;;;;;;6.60;2.05;;;;;;;18.81;nan;100428.91;5043311;28;20617;-73
2022/05/03 10:04:59;;;;;;;5.65;2.22;;;;;;;18.88;nan;100435.50;5040637;28;20102;-72
2022/05/03 10:07:25;;;;;;;13.05;2.60;;;;;;;18.94;nan;100427.44;5040111;28;20029;-73
2022/05/03 10:09:51;;;;;;;4.55;2.25;;;;;;;19.03;nan;100473.81;5023603;28;20114;-73
2022/05/03 10:12:18;;;;;;;5.35;2.20;;;;;;;19.16;nan;100435.81;5042123;28;20767;-70
2022/05/03 10:14:45;;;;;;;6.15;2.50;;;;;;;19.25;nan;100438.66;5041654;28;20480;-72
2022/05/03 10:22:46;;;;;;;3.72;2.17;;;;;;;19.39;nan;100428.09;5045349;28;20036;-72
2022/05/03 10:25:15;;;;;;;5.75;2.53;;;;;;;19.44;nan;100428.88;5030093;28;20496;-71
2022/05/03 10:27:55;;;;;;;5.88;2.80;;;;;;;19.48;nan;100423.75;5005862;28;20044;-74
2022/05/03 10:30:23;;;;;;;6.75;3.22;;;;;;;19.38;nan;100373.13;5032053;28;20048;-72
2022/05/03 10:33:19;;;;;;;7.10;2.58;;;;;;;19.44;nan;100422.72;5049008;28;20067;-72
2022/05/03 10:35:46;;;;;;;5.05;2.22;;;;;;;19.51;nan;100437.34;5050675;28;20033;-71
2022/05/03 10:38:12;;;;;;;7.10;2.70;;;;;;;19.52;nan;100492.34;5051722;28;20033;-72
2022/05/03 10:40:41;;;;;;;9.32;2.17;;;;;;;;;;5030025;28;20057;-71
2022/05/03 10:43:12;;;;;;;6.60;2.30;;;;;;;19.52;nan;100406.88;5046708;28;20140;-73
2022/05/03 10:45:51;;;;;;;3.83;2.05;;;;;;;19.49;nan;100388.75;5031758;28;20499;-73
2022/05/03 10:48:27;;;;;;;;;;;;;;;19.48;nan;100416.53;5033076;28;20094;-72
2022/05/03 10:51:00;;;;;;;5.82;2.50;;;;;;;19.46;nan;100424.00;5044102;28;19917;-71
2022/05/03 10:53:27;;;;;;;5.65;2.55;;;;;;;19.52;nan;100422.91;5045059;28;20090;-69
2022/05/03 10:56:18;;;;;;;9.30;2.83;;;;;;;19.55;nan;100422.31;5048259;28;20456;-72
2022/05/03 10:58:45;;;;;;;5.43;2.60;;;;;;;;;;5032009;28;20495;-68
2022/05/03 11:01:19;;;;;;;3.97;2.40;;;;;;;19.74;nan;100403.69;5034655;28;20036;-69
2022/05/03 11:03:48;;;;;;;7.80;2.83;;;;;;;19.82;nan;100404.94;5041586;28;20033;-71
2022/05/03 11:06:19;;;;;;;3.30;2.57;;;;;;;19.83;nan;100398.53;5036410;28;20039;-71
2022/05/03 11:11:35;;;;;;;5.63;2.53;;;;;;;20.01;nan;100394.28;5040107;28;20045;-72
2022/05/03 11:14:02;;;;;;;6.43;2.38;;;;;;;20.05;nan;100381.94;5045226;28;20072;-72
2022/05/03 11:16:34;;;;;;;7.60;3.30;;;;;;;20.17;nan;100394.88;5028803;28;20044;-72
2022/05/03 11:19:28;;;;;;;8.75;3.00;;;;;;;20.29;nan;100368.50;5043957;28;20475;-73
2022/05/03 11:21:55;;;;;;;5.47;2.30;;;;;;;20.38;nan;100430.16;5047714;28;20055;-72
2022/05/03 11:24:21;;;;;;;7.35;2.60;;;;;;;20.50;nan;100377.00;5029192;28;20369;-70
2022/05/03 11:26:48;;;;;;;5.82;2.25;;;;;;;20.53;nan;100445.97;5043246;28;20513;-72
2022/05/03 11:29:14;;;;;;;7.40;2.75;;;;;;;20.55;nan;100346.69;5034906;28;20025;-71
2022/05/03 11:31:48;;;;;;;7.03;3.10;;;;;;;20.57;nan;100384.69;5039839;28;20041;-73
2022/05/03 11:34:14;;;;;;;11.48;2.33;;;;;;;;;;5039141;28;20495;-72
2022/05/03 11:36:46;;;;;;;9.45;2.88;;;;;;;20.55;nan;100347.50;5050072;28;20033;-72
2022/05/03 11:39:12;;;;;;;4.70;2.40;;;;;;;20.64;nan;100386.97;5049051;28;20094;-69
2022/05/03 11:41:39;;;;;;;5.55;2.35;;;;;;;20.65;nan;100407.31;5032878;28;20067;-70
2022/05/03 11:44:04;;;;;;;4.10;2.40;;;;;;;;;;5029860;28;20041;-70
2022/05/03 11:46:30;;;;;;;5.10;2.60;;;;;;;;;;5048086;28;20037;-72
2022/05/03 11:49:00;;;;;;;8.30;2.85;;;;;;;20.54;nan;100356.59;5050762;28;20033;-72
2022/05/03 11:57:36;;;;;;;5.22;2.35;;;;;;;;;;5012925;28;20049;-71
2022/05/03 12:00:05;;;;;;;2.83;2.25;;;;;;;20.99;nan;100369.50;5030603;28;20037;-71
2022/05/03 12:02:33;;;;;;;4.75;2.53;;;;;;;21.04;nan;100348.78;5050118;28;20108;-72
2022/05/03 12:04:59;;;;;;;7.13;2.40;;;;;;;21.12;nan;100351.88;5049856;28;20033;-72
2022/05/03 12:07:25;;;;;;;5.38;3.05;;;;;;;21.08;nan;100346.31;5031230;28;20029;-71
2022/05/03 12:09:50;;;;;;;3.92;2.25;;;;;;;;;;5024608;28;20029;-69
2022/05/03 12:15:21;;;;;;;4.50;2.38;;;;;;;21.20;nan;100348.53;5046363;28;20041;-75
2022/05/03 12:18:03;;;;;;;5.20;2.28;;;;;;;;;;5041866;28;20069;-73
2022/05/03 12:20:42;;;;;;;5.82;2.33;;;;;;;;;;5049443;28;20757;-73
2022/05/03 12:23:16;;;;;;;5.45;2.40;;;;;;;21.51;nan;100346.06;5031744;28;20044;-73
2022/05/03 12:25:43;;;;;;;6.93;2.25;;;;;;;21.58;nan;100318.88;5046029;28;20566;-73
2022/05/03 12:28:08;;;;;;;6.53;2.65;;;;;;;21.62;nan;100327.88;5041259;28;20055;-73
2022/05/03 12:30:35;;;;;;;4.28;2.40;;;;;;;21.67;nan;100333.16;5029294;28;20111;-73
2022/05/03 12:33:06;;;;;;;4.63;2.47;;;;;;;21.61;nan;100321.72;5037339;28;20402;-73
2022/05/03 12:35:33;;;;;;;5.75;2.63;;;;;;;21.67;nan;100309.03;5030548;28;20657;-73
2022/05/03 12:38:08;;;;;;;3.50;2.35;;;;;;;21.73;nan;100307.81;5040694;28;20486;-72
2022/05/03 12:41:01;;;;;;;4.03;2.30;;;;;;;21.85;nan;100337.56;5052882;28;20394;-73
2022/05/03 12:43:28;;;;;;;3.67;2.40;;;;;;;21.93;nan;100316.50;5063072;28;20075;-72
2022/05/03 12:45:55;;;;;;;5.05;2.30;;;;;;;22.00;nan;100331.06;5062854;28;20037;-74
2022/05/03 12:48:21;;;;;;;3.50;2.35;;;;;;;22.00;nan;100306.13;5077884;28;20080;-72
2022/05/03 12:50:47;;;;;;;3.53;2.38;;;;;;;21.77;nan;100357.03;5071477;28;20067;-73
2022/05/03 12:53:13;;;;;;;6.53;2.13;;;;;;;21.94;nan;100240.34;5076690;28;20025;-73
2022/05/03 12:55:39;;;;;;;5.05;2.72;;;;;;;21.97;nan;100310.22;5064210;28;20029;-73
2022/05/03 12:58:22;;;;;;;6.20;2.60;;;;;;;22.00;nan;100268.59;5074555;28;20060;-72
2022/05/03 13:00:57;;;;;;;6.10;2.90;;;;;;;22.05;nan;100297.97;5044586;28;20037;-73
2022/05/03 13:03:23;;;;;;;5.20;2.67;;;;;;;22.04;nan;100299.06;5042671;28;20039;-74
2022/05/03 13:05:50;;;;;;;4.32;2.30;;;;;;;22.04;nan;100313.28;5049746;28;20029;-73
2022/05/03 13:08:17;;;;;;;8.15;2.65;;;;;;;21.94;nan;100300.09;5042503;28;20399;-72
2022/05/03 13:10:42;;;;;;;4.53;2.50;;;;;;;21.91;nan;100294.53;5060281;28;20502;-72
2022/05/03 13:13:08;;;;;;;7.07;2.45;;;;;;;;;;5057938;28;20039;-72
2022/05/03 13:15:34;;;;;;;5.10;2.60;;;;;;;21.83;nan;100347.78;5059801;28;20062;-72
2022/05/03 13:18:00;;;;;;;3.00;2.28;;;;;;;21.79;nan;100298.56;5046491;28;20086;-72
2022/05/03 13:20:28;;;;;;;5.82;2.40;;;;;;;;;;5044249;28;20087;-73
2022/05/03 13:22:54;;;;;;;6.22;2.00;;;;;;;21.67;nan;100296.41;5052775;28;20041;-73
2022/05/03 13:25:21;;;;;;;4.88;2.20;;;;;;;21.65;nan;100309.31;5046027;28;20052;-71
2022/05/03 13:27:47;;;;;;;4.25;2.20;;;;;;;21.62;nan;100290.34;5055420;28;20048;-69
2022/05/03 13:30:13;;;;;;;2.95;2.00;;;;;;;21.57;nan;100252.97;5055106;28;20124;-70
2022/05/03 13:32:39;;;;;;;9.57;2.40;;;;;;;21.57;nan;100339.53;5051399;28;20102;-69
2022/05/03 13:35:05;;;;;;;4.72;2.35;;;;;;;21.58;nan;100266.06;5051506;28;20123;-73
2022/05/03 13:40:30;;;;;;;6.07;2.42;;;;;;;21.65;nan;100279.06;5052813;28;20057;-73
2022/05/03 13:42:59;;;;;;;6.22;2.35;;;;;;;21.59;nan;100277.56;5068039;28;20060;-72
2022/05/03 13:45:28;;;;;;;4.22;2.60;;;;;;;21.66;nan;100286.00;5046338;28;20032;-72
2022/05/03 13:47:55;;;;;;;3.97;2.42;;;;;;;21.68;nan;100291.84;5046058;28;20368;-72
2022/05/03 13:50:21;;;;;;;4.90;2.40;;;;;;;21.69;nan;100284.59;5052100;28;20047;-71
2022/05/03 13:52:47;;;;;;;5.50;2.25;;;;;;;21.76;nan;100298.38;5052227;28;20029;-71
2022/05/03 13:55:12;;;;;;;7.20;2.42;;;;;;;21.72;nan;100278.66;5045563;28;20036;-70
2022/05/03 13:57:37;;;;;;;8.02;2.45;;;;;;;;;;5030191;28;20072;-71
2022/05/03 14:00:05;;;;;;;3.25;2.30;;;;;;;21.76;nan;100284.97;5047227;28;20044;-69
2022/05/03 14:02:30;;;;;;;5.00;2.53;;;;;;;21.79;nan;100265.63;5053624;28;20115;-69
2022/05/03 14:04:57;;;;;;;4.75;2.40;;;;;;;21.87;nan;100289.00;5032855;28;20047;-70
2022/05/03 14:07:23;;;;;;;3.42;2.63;;;;;;;21.86;nan;100277.50;5052451;28;20037;-70
2022/05/03 14:09:49;;;;;;;6.40;2.38;;;;;;;21.89;nan;100281.47;5039037;28;20021;-70
2022/05/03 14:12:14;;;;;;;3.85;2.45;;;;;;;21.90;nan;100204.50;5052196;28;20094;-71
2022/05/03 14:14:40;;;;;;;5.55;2.22;;;;;;;21.75;nan;100278.81;5051293;28;20541;-72
2022/05/03 14:17:05;;;;;;;6.75;2.50;;;;;;;21.59;nan;100270.31;5035037;28;20383;-72
2022/05/03 14:19:31;;;;;;;7.25;2.30;;;;;;;21.67;nan;100274.97;5038611;28;20041;-70